Time;durP1;ratioP1;P1;durP2;ratioP2;P2;SDS_P1;SDS_P2;PMS_P1;PMS_P2;Temp;Humidity;BMP_temperature;BMP_pressure;BME280_temperature;BME280_humidity;BME280_pressure;Samples;Min_cycle;Max_cycle;Signal;HPM_P1;HPM_P2
2022/01/01 00:00:08;;;;;;;2.75;2.30;;;;;;;;;;5056459;28;20506;-54
2022/01/01 00:02:37;;;;;;;3.10;2.78;;;;;;;;;;5057361;28;20267;-54
2022/01/01 00:05:05;;;;;;;2.95;2.55;;;;;;;;;;5057171;28;20215;-54
2022/01/01 00:07:32;;;;;;;2.83;2.63;;;;;;;;;;5057051;28;20204;-54
2022/01/01 00:10:00;;;;;;;2.65;2.30;;;;;;;;;;5056323;28;20251;-55
2022/01/01 00:12:27;;;;;;;2.50;2.30;;;;;;;;;;5057981;28;20216;-55
2022/01/01 00:14:55;;;;;;;2.50;2.30;;;;;;;;;;5056569;28;20232;-54
2022/01/01 00:17:22;;;;;;;2.58;2.22;;;;;;;;;;5056936;28;20213;-54
2022/01/01 00:19:51;;;;;;;4.80;2.97;;;;;;;;;;5057195;28;20197;-55
2022/01/01 00:22:18;;;;;;;3.63;2.30;;;;;;;;;;5057380;28;20223;-54
2022/01/01 00:24:45;;;;;;;2.60;2.28;;;;;;;;;;5056790;28;20205;-54
2022/01/01 00:27:13;;;;;;;2.40;2.20;;;;;;;;;;5057209;28;20205;-54
2022/01/01 00:29:40;;;;;;;2.53;2.33;;;;;;;;;;5056563;28;20498;-54
2022/01/01 00:32:08;;;;;;;2.40;2.20;;;;;;;;;;5058289;28;20204;-54
2022/01/01 00:34:35;;;;;;;2.40;2.20;;;;;;;;;;5058567;28;20895;-55
2022/01/01 00:37:04;;;;;;;2.95;2.13;;;;;;;;;;5057168;28;20217;-54
2022/01/01 00:39:32;;;;;;;2.50;2.30;;;;;;;;;;5056583;28;20211;-54
2022/01/01 00:41:59;;;;;;;2.20;2.00;;;;;;;;;;5046300;28;20229;-55
2022/01/01 00:44:29;;;;;;;3.30;2.35;;;;;;;;;;5020841;28;20206;-54
2022/01/01 00:46:57;;;;;;;3.65;2.20;;;;;;;;;;5035188;28;20209;-55
2022/01/01 00:49:24;;;;;;;3.25;2.28;;;;;;;;;;5036870;28;20506;-55
2022/01/01 00:51:52;;;;;;;2.30;2.00;;;;;;;;;;5018380;28;20630;-54
2022/01/01 00:54:21;;;;;;;2.45;2.25;;;;;;;;;;5018030;28;20211;-54
2022/01/01 00:56:49;;;;;;;3.38;2.15;;;;;;;;;;5016550;28;20217;-54
2022/01/01 00:59:16;;;;;;;2.58;2.00;;;;;;;;;;5016604;28;20213;-54
2022/01/01 01:01:44;;;;;;;4.43;2.08;;;;;;;;;;5016410;28;20218;-54
2022/01/01 01:04:11;;;;;;;2.20;2.00;;;;;;;;;;5016291;28;20529;-54
2022/01/01 01:06:38;;;;;;;1.98;1.77;;;;;;;;;;5016663;28;20206;-54
2022/01/01 01:09:06;;;;;;;2.35;2.10;;;;;;;;;;5025802;28;20201;-54
2022/01/01 01:11:42;;;;;;;4.10;2.10;;;;;;;;;;5055923;28;20201;-54
2022/01/01 01:14:18;;;;;;;2.92;2.15;;;;;;;;;;5056862;28;20227;-54
2022/01/01 01:16:45;;;;;;;2.17;1.98;;;;;;;;;;5056776;28;20200;-54
2022/01/01 01:19:12;;;;;;;2.55;2.10;;;;;;;;;;5056597;28;20204;-54
2022/01/01 01:21:40;;;;;;;2.83;2.20;;;;;;;;;;5057814;28;20455;-54
2022/01/01 01:24:07;;;;;;;2.05;1.85;;;;;;;;;;5056565;28;20197;-54
2022/01/01 01:26:36;;;;;;;2.67;1.98;;;;;;;;;;5056490;28;20213;-55
2022/01/01 01:29:05;;;;;;;1.85;1.75;;;;;;;;;;5056705;28;20205;-54
2022/01/01 01:31:32;;;;;;;2.50;1.70;;;;;;;;;;5057290;28;20229;-54
2022/01/01 01:34:02;;;;;;;1.65;1.55;;;;;;;;;;5056363;28;20233;-55
2022/01/01 01:36:29;;;;;;;1.90;1.77;;;;;;;;;;5056490;28;20205;-54
2022/01/01 01:38:57;;;;;;;4.13;1.88;;;;;;;;;;5055263;28;20240;-54
2022/01/01 01:41:29;;;;;;;3.03;1.88;;;;;;;;;;5055990;28;20201;-54
2022/01/01 01:43:58;;;;;;;1.88;1.70;;;;;;;;;;5056729;28;20212;-55
2022/01/01 01:46:26;;;;;;;2.97;2.00;;;;;;;;;;5056770;28;20205;-55
2022/01/01 01:48:54;;;;;;;2.70;2.00;;;;;;;;;;5056304;28;20205;-54
2022/01/01 01:51:22;;;;;;;2.13;1.83;;;;;;;;;;5056708;28;20229;-54
2022/01/01 01:53:49;;;;;;;2.10;1.90;;;;;;;;;;5056817;28;20205;-54
2022/01/01 01:56:17;;;;;;;2.15;1.83;;;;;;;;;;5056688;28;20592;-54
2022/01/01 01:58:45;;;;;;;2.63;1.73;;;;;;;;;;5056800;28;20283;-54
2022/01/01 02:01:23;;;;;;;2.67;1.80;;;;;;;;;;5056464;28;20601;-54
2022/01/01 02:03:51;;;;;;;1.58;1.48;;;;;;;;;;5055647;28;20211;-54
2022/01/01 02:06:20;;;;;;;2.55;1.63;;;;;;;;;;5056777;28;20216;-54
2022/01/01 02:08:49;;;;;;;1.70;1.60;;;;;;;;;;5056689;28;20311;-54
2022/01/01 02:11:18;;;;;;;2.70;1.80;;;;;;;;;;5056486;28;20225;-54
2022/01/01 02:14:02;;;;;;;2.63;1.90;;;;;;;;;;5060181;28;20293;-54
2022/01/01 02:16:39;;;;;;;2.17;1.40;;;;;;;;;;5058976;28;20211;-54
2022/01/01 02:19:06;;;;;;;2.15;1.77;;;;;;;;;;5060619;28;20368;-54
2022/01/01 02:21:35;;;;;;;1.98;1.60;;;;;;;;;;5060812;28;20201;-54
2022/01/01 02:24:04;;;;;;;1.77;1.60;;;;;;;;;;5060242;28;20521;-54
2022/01/01 02:26:32;;;;;;;2.38;1.90;;;;;;;;;;5060543;28;20243;-54
2022/01/01 02:29:00;;;;;;;1.88;1.55;;;;;;;;;;5060345;28;20209;-54
2022/01/01 02:31:28;;;;;;;2.33;1.77;;;;;;;;;;5059708;28;20224;-55
2022/01/01 02:33:55;;;;;;;2.05;1.30;;;;;;;;;;5060031;28;20252;-54
2022/01/01 02:36:33;;;;;;;1.88;1.77;;;;;;;;;;5059769;28;20217;-54
2022/01/01 02:39:02;;;;;;;1.70;1.60;;;;;;;;;;5059880;28;20205;-54
2022/01/01 02:41:30;;;;;;;1.80;1.70;;;;;;;;;;5060428;28;20201;-54
2022/01/01 02:43:57;;;;;;;1.65;1.55;;;;;;;;;;5060031;28;20205;-54
2022/01/01 02:46:25;;;;;;;1.75;1.65;;;;;;;;;;5059975;28;20205;-54
2022/01/01 02:48:52;;;;;;;1.52;1.42;;;;;;;;;;5060228;28;20518;-54
2022/01/01 02:51:19;;;;;;;1.85;1.45;;;;;;;;;;5060010;28;20251;-54
2022/01/01 02:53:47;;;;;;;2.15;1.50;;;;;;;;;;5060035;28;20216;-54
2022/01/01 02:56:15;;;;;;;1.90;1.70;;;;;;;;;;5059691;28;20244;-54
2022/01/01 02:58:43;;;;;;;1.80;1.70;;;;;;;;;;5059638;28;20224;-54
2022/01/01 03:01:10;;;;;;;1.52;1.42;;;;;;;;;;5059319;28;20232;-54
2022/01/01 03:03:38;;;;;;;1.90;1.60;;;;;;;;;;5059055;28;20216;-54
2022/01/01 03:06:05;;;;;;;1.55;1.45;;;;;;;;;;5059893;28;20204;-54
2022/01/01 03:08:33;;;;;;;1.45;1.35;;;;;;;;;;5059613;28;20209;-54
2022/01/01 03:11:02;;;;;;;1.80;1.70;;;;;;;;;;5059802;28;20229;-54
2022/01/01 03:13:31;;;;;;;1.70;1.60;;;;;;;;;;5059410;28;20270;-54
2022/01/01 03:15:59;;;;;;;1.40;1.30;;;;;;;;;;5058933;28;20461;-54
2022/01/01 03:18:26;;;;;;;1.70;1.60;;;;;;;;;;5059417;28;20206;-54
2022/01/01 03:20:53;;;;;;;1.50;1.40;;;;;;;;;;5059725;28;20205;-54
2022/01/01 03:23:20;;;;;;;1.63;1.52;;;;;;;;;;5058625;28;20212;-54
2022/01/01 03:25:48;;;;;;;1.60;1.50;;;;;;;;;;5059470;28;20205;-54
2022/01/01 03:28:16;;;;;;;1.60;1.50;;;;;;;;;;5059014;28;20205;-54
2022/01/01 03:30:45;;;;;;;1.50;1.40;;;;;;;;;;5058480;28;20225;-54
2022/01/01 03:33:12;;;;;;;1.77;1.67;;;;;;;;;;5058681;28;20569;-54
2022/01/01 03:35:39;;;;;;;1.67;1.58;;;;;;;;;;5058711;28;20232;-54
2022/01/01 03:38:07;;;;;;;1.60;1.50;;;;;;;;;;5058661;28;20213;-54
2022/01/01 03:40:34;;;;;;;2.10;1.50;;;;;;;;;;5058417;28;20201;-55
2022/01/01 03:43:02;;;;;;;1.80;1.70;;;;;;;;;;5059109;28;20232;-55
2022/01/01 03:45:29;;;;;;;2.40;1.50;;;;;;;;;;5058886;28;20212;-54
2022/01/01 03:47:58;;;;;;;1.50;1.40;;;;;;;;;;5058954;28;20514;-54
2022/01/01 03:50:25;;;;;;;1.60;1.50;;;;;;;;;;5058748;28;20521;-55
2022/01/01 03:52:53;;;;;;;1.50;1.40;;;;;;;;;;5059021;28;20209;-55
2022/01/01 03:55:20;;;;;;;1.45;1.35;;;;;;;;;;5058072;28;20615;-54
2022/01/01 03:57:47;;;;;;;1.50;1.40;;;;;;;;;;5058914;28;20204;-54
2022/01/01 04:00:15;;;;;;;1.35;1.25;;;;;;;;;;5058572;28;20204;-54
2022/01/01 04:02:43;;;;;;;1.30;1.20;;;;;;;;;;5058211;28;20204;-54
2022/01/01 04:05:12;;;;;;;1.83;1.45;;;;;;;;;;5057787;28;20205;-54
2022/01/01 04:07:39;;;;;;;1.40;1.30;;;;;;;;;;5058305;28;20205;-54
2022/01/01 04:10:07;;;;;;;1.35;1.25;;;;;;;;;;5058405;28;20782;-54
2022/01/01 04:12:35;;;;;;;1.50;1.38;;;;;;;;;;5058302;28;20220;-54
2022/01/01 04:15:03;;;;;;;1.40;1.30;;;;;;;;;;5058120;28;20205;-54
2022/01/01 04:17:35;;;;;;;1.33;1.23;;;;;;;;;;5058574;28;20557;-55
2022/01/01 04:20:03;;;;;;;1.63;1.52;;;;;;;;;;5057959;28;20277;-54
2022/01/01 04:22:31;;;;;;;1.30;1.20;;;;;;;;;;5057728;28;20196;-55
2022/01/01 04:24:59;;;;;;;1.38;1.27;;;;;;;;;;5059101;28;20208;-54
2022/01/01 04:27:26;;;;;;;1.42;1.33;;;;;;;;;;5058139;28;20596;-54
2022/01/01 04:29:53;;;;;;;1.35;1.25;;;;;;;;;;5058509;28;20209;-54
2022/01/01 04:32:21;;;;;;;1.35;1.25;;;;;;;;;;5057281;28;20233;-54
2022/01/01 04:34:48;;;;;;;1.40;1.30;;;;;;;;;;5057188;28;20241;-54
2022/01/01 04:37:18;;;;;;;1.50;1.40;;;;;;;;;;5058138;28;20219;-54
2022/01/01 04:39:48;;;;;;;1.40;1.30;;;;;;;;;;5058066;28;20255;-54
2022/01/01 04:42:15;;;;;;;1.58;1.48;;;;;;;;;;5057633;28;20213;-54
2022/01/01 04:44:43;;;;;;;1.30;1.20;;;;;;;;;;5057992;28;20220;-54
2022/01/01 04:47:10;;;;;;;1.23;1.13;;;;;;;;;;5057575;28;20212;-54
2022/01/01 04:49:38;;;;;;;1.42;1.27;;;;;;;;;;5057369;28;20628;-54
2022/01/01 04:52:05;;;;;;;1.20;1.10;;;;;;;;;;5057167;28;20498;-55
2022/01/01 04:54:34;;;;;;;1.20;1.10;;;;;;;;;;5057861;28;20204;-55
2022/01/01 04:57:02;;;;;;;1.50;1.40;;;;;;;;;;5056202;28;20213;-55
2022/01/01 04:59:30;;;;;;;1.40;1.30;;;;;;;;;;5056976;28;20586;-54
2022/01/01 05:01:57;;;;;;;1.40;1.30;;;;;;;;;;5056321;28;20201;-54
2022/01/01 05:04:25;;;;;;;1.58;1.48;;;;;;;;;;5056693;28;20211;-55
2022/01/01 05:06:52;;;;;;;1.45;1.35;;;;;;;;;;5057401;28;20313;-54
2022/01/01 05:09:20;;;;;;;1.40;1.30;;;;;;;;;;5057226;28;20209;-54
2022/01/01 05:11:47;;;;;;;1.20;1.20;;;;;;;;;;5055923;28;20243;-54
2022/01/01 05:14:16;;;;;;;1.38;1.27;;;;;;;;;;5056624;28;20219;-54
2022/01/01 05:16:43;;;;;;;1.35;1.25;;;;;;;;;;5056641;28;20204;-54
2022/01/01 05:19:11;;;;;;;1.20;1.10;;;;;;;;;;5056748;28;20577;-54
2022/01/01 05:21:38;;;;;;;1.40;1.30;;;;;;;;;;5056630;28;20205;-54
2022/01/01 05:24:08;;;;;;;1.38;1.27;;;;;;;;;;5056911;28;20266;-54
2022/01/01 05:26:35;;;;;;;1.33;1.23;;;;;;;;;;5056384;28;20205;-54
2022/01/01 05:29:03;;;;;;;0.90;0.90;;;;;;;;;;5056448;28;20731;-54
2022/01/01 05:31:33;;;;;;;1.25;1.15;;;;;;;;;;5056950;28;20220;-54
2022/01/01 05:34:01;;;;;;;1.60;1.05;;;;;;;;;;5056717;28;20323;-54
2022/01/01 05:36:28;;;;;;;1.40;1.30;;;;;;;;;;5057022;28;20239;-54
2022/01/01 05:38:55;;;;;;;1.17;1.10;;;;;;;;;;5056686;28;20201;-54
2022/01/01 05:41:23;;;;;;;1.00;1.00;;;;;;;;;;5057014;28;20209;-54
2022/01/01 05:43:51;;;;;;;1.00;1.00;;;;;;;;;;5056445;28;20228;-54
2022/01/01 05:46:18;;;;;;;1.25;1.15;;;;;;;;;;5056971;28;20212;-55
2022/01/01 05:48:47;;;;;;;1.10;1.10;;;;;;;;;;5060877;28;20217;-54
2022/01/01 05:51:14;;;;;;;1.23;1.10;;;;;;;;;;5060821;28;20239;-54
2022/01/01 05:53:42;;;;;;;1.20;1.10;;;;;;;;;;5060724;28;20224;-54
2022/01/01 05:56:09;;;;;;;1.05;1.00;;;;;;;;;;5060860;28;20530;-54
2022/01/01 05:58:37;;;;;;;1.10;1.10;;;;;;;;;;5060513;28;20569;-54
2022/01/01 06:01:04;;;;;;;1.45;1.35;;;;;;;;;;5060611;28;20201;-55
2022/01/01 06:03:31;;;;;;;1.30;1.20;;;;;;;;;;5060874;28;20211;-54
2022/01/01 06:06:00;;;;;;;1.42;1.33;;;;;;;;;;5060426;28;20227;-54
2022/01/01 06:08:28;;;;;;;1.05;1.05;;;;;;;;;;5060720;28;20622;-54
2022/01/01 06:10:55;;;;;;;1.00;0.90;;;;;;;;;;5060088;28;20232;-54
2022/01/01 06:13:23;;;;;;;1.30;1.20;;;;;;;;;;5059165;28;20227;-54
2022/01/01 06:15:50;;;;;;;1.40;1.30;;;;;;;;;;5060546;28;20205;-54
2022/01/01 06:18:17;;;;;;;1.40;1.30;;;;;;;;;;5060627;28;20213;-54
2022/01/01 06:20:46;;;;;;;1.48;1.38;;;;;;;;;;5060714;28;20209;-55
2022/01/01 06:23:15;;;;;;;0.95;0.95;;;;;;;;;;5059679;28;20213;-54
2022/01/01 06:25:42;;;;;;;1.45;1.10;;;;;;;;;;5060280;28;20205;-54
2022/01/01 06:28:09;;;;;;;1.20;1.10;;;;;;;;;;5060319;28;20490;-54
2022/01/01 06:30:37;;;;;;;1.30;1.20;;;;;;;;;;5060032;28;20216;-54
2022/01/01 06:33:11;;;;;;;1.15;1.05;;;;;;;;;;5060281;28;20232;-54
2022/01/01 06:35:39;;;;;;;1.30;1.20;;;;;;;;;;5042660;28;20291;-54
2022/01/01 06:38:06;;;;;;;1.45;1.35;;;;;;;;;;5039205;28;20241;-54
2022/01/01 06:40:35;;;;;;;1.27;1.17;;;;;;;;;;5039235;28;20209;-54
2022/01/01 06:43:04;;;;;;;1.20;1.10;;;;;;;;;;5039481;28;20201;-54
2022/01/01 06:45:31;;;;;;;1.23;1.15;;;;;;;;;;5040023;28;20202;-54
2022/01/01 06:47:58;;;;;;;1.30;1.20;;;;;;;;;;5039357;28;20205;-54
2022/01/01 06:50:26;;;;;;;1.10;1.00;;;;;;;;;;5040206;28;20222;-54
2022/01/01 06:52:53;;;;;;;1.10;1.00;;;;;;;;;;5040015;28;20256;-54
2022/01/01 06:55:21;;;;;;;1.20;1.10;;;;;;;;;;5040428;28;20205;-54
2022/01/01 06:57:50;;;;;;;1.00;1.00;;;;;;;;;;5039032;28;20212;-54
2022/01/01 07:00:18;;;;;;;1.00;1.00;;;;;;;;;;5039514;28;20225;-55
2022/01/01 07:02:47;;;;;;;1.25;1.15;;;;;;;;;;5039419;28;20482;-54
2022/01/01 07:05:15;;;;;;;1.33;1.23;;;;;;;;;;5038799;28;20213;-54
2022/01/01 07:07:43;;;;;;;1.25;1.17;;;;;;;;;;5038432;28;20201;-54
2022/01/01 07:10:11;;;;;;;1.40;1.30;;;;;;;;;;5038976;28;20206;-54
2022/01/01 07:12:39;;;;;;;1.30;1.20;;;;;;;;;;5038911;28;20240;-54
2022/01/01 07:15:08;;;;;;;1.70;1.35;;;;;;;;;;5039692;28;20206;-54
2022/01/01 07:17:36;;;;;;;1.40;1.30;;;;;;;;;;5039366;28;20206;-54
2022/01/01 07:20:03;;;;;;;1.20;1.10;;;;;;;;;;5039165;28;20206;-54
2022/01/01 07:22:30;;;;;;;1.23;1.13;;;;;;;;;;5039139;28;20206;-54
2022/01/01 07:24:58;;;;;;;1.25;1.15;;;;;;;;;;5038640;28;20205;-54
2022/01/01 07:27:26;;;;;;;1.27;1.17;;;;;;;;;;5038831;28;20225;-54
2022/01/01 07:29:53;;;;;;;1.17;1.10;;;;;;;;;;5038499;28;20464;-54
2022/01/01 07:32:22;;;;;;;1.30;1.20;;;;;;;;;;5038038;28;20236;-54
2022/01/01 07:34:49;;;;;;;1.45;1.35;;;;;;;;;;5048211;28;20237;-54
2022/01/01 07:37:16;;;;;;;1.50;1.30;;;;;;;;;;5058843;28;20228;-54
2022/01/01 07:39:44;;;;;;;1.30;1.20;;;;;;;;;;5058142;28;20212;-54
2022/01/01 07:42:12;;;;;;;1.40;1.30;;;;;;;;;;5058362;28;20201;-54
2022/01/01 07:44:40;;;;;;;1.30;1.20;;;;;;;;;;5058953;28;20567;-54
2022/01/01 07:47:08;;;;;;;1.38;1.27;;;;;;;;;;5058610;28;20593;-54
2022/01/01 07:49:36;;;;;;;1.30;1.20;;;;;;;;;;5059059;28;20212;-54
2022/01/01 07:52:04;;;;;;;1.48;1.38;;;;;;;;;;5058362;28;20235;-54
2022/01/01 07:54:31;;;;;;;1.30;1.20;;;;;;;;;;5058461;28;20486;-54
2022/01/01 07:56:59;;;;;;;1.40;1.30;;;;;;;;;;5058056;28;20205;-54
2022/01/01 07:59:26;;;;;;;1.40;1.30;;;;;;;;;;5058242;28;20224;-54
2022/01/01 08:01:53;;;;;;;1.38;1.27;;;;;;;;;;5057701;28;20192;-54
2022/01/01 08:04:21;;;;;;;1.20;1.15;;;;;;;;;;5058193;28;20507;-54
2022/01/01 08:06:49;;;;;;;1.45;1.35;;;;;;;;;;5057932;28;20205;-54
2022/01/01 08:09:17;;;;;;;1.40;1.30;;;;;;;;;;5057998;28;20205;-54
2022/01/01 08:11:44;;;;;;;1.50;1.40;;;;;;;;;;5057262;28;20812;-54
2022/01/01 08:14:12;;;;;;;1.50;1.40;;;;;;;;;;5057966;28;20217;-54
2022/01/01 08:16:54;;;;;;;1.52;1.42;;;;;;;;;;5057833;28;20213;-54
2022/01/01 08:19:21;;;;;;;1.42;1.33;;;;;;;;;;5057997;28;20212;-54
2022/01/01 08:21:50;;;;;;;1.50;1.40;;;;;;;;;;5057713;28;20201;-54
2022/01/01 08:24:18;;;;;;;1.40;1.30;;;;;;;;;;5057888;28;20217;-54
2022/01/01 08:26:45;;;;;;;1.50;1.40;;;;;;;;;;5058087;28;20213;-54
2022/01/01 08:29:13;;;;;;;1.30;1.20;;;;;;;;;;5058848;28;20205;-54
2022/01/01 08:31:40;;;;;;;1.45;1.35;;;;;;;;;;5058275;28;20205;-54
2022/01/01 08:34:07;;;;;;;1.50;1.40;;;;;;;;;;5056943;28;20236;-54
2022/01/01 08:36:35;;;;;;;1.60;1.50;;;;;;;;;;5057960;28;20643;-54
2022/01/01 08:39:05;;;;;;;1.45;1.35;;;;;;;;;;5057068;28;20220;-54
2022/01/01 08:41:33;;;;;;;1.27;1.17;;;;;;;;;;5057608;28;20468;-54
2022/01/01 08:44:01;;;;;;;1.40;1.30;;;;;;;;;;5058276;28;20227;-54
2022/01/01 08:46:28;;;;;;;1.50;1.40;;;;;;;;;;5057793;28;20205;-54
2022/01/01 08:48:55;;;;;;;1.48;1.30;;;;;;;;;;5057621;28;20216;-54
2022/01/01 08:51:24;;;;;;;1.63;1.52;;;;;;;;;;5057822;28;20223;-54
2022/01/01 08:53:51;;;;;;;1.48;1.38;;;;;;;;;;5057623;28;20235;-54
2022/01/01 08:56:20;;;;;;;1.50;1.40;;;;;;;;;;5057220;28;20197;-54
2022/01/01 08:58:48;;;;;;;1.45;1.35;;;;;;;;;;5057355;28;20197;-54
2022/01/01 09:01:15;;;;;;;1.60;1.50;;;;;;;;;;5057255;28;20205;-54
2022/01/01 09:03:43;;;;;;;1.50;1.40;;;;;;;;;;5056665;28;20200;-54
2022/01/01 09:06:11;;;;;;;1.42;1.33;;;;;;;;;;5056641;28;20215;-54
2022/01/01 09:08:39;;;;;;;1.35;1.25;;;;;;;;;;5056629;28;20487;-54
2022/01/01 09:11:07;;;;;;;1.38;1.27;;;;;;;;;;5057357;28;20240;-54
2022/01/01 09:13:41;;;;;;;1.50;1.40;;;;;;;;;;5056647;28;20248;-54
2022/01/01 09:16:10;;;;;;;1.55;1.45;;;;;;;;;;5056276;28;20205;-54
2022/01/01 09:18:38;;;;;;;1.38;1.27;;;;;;;;;;5056559;28;20271;-54
2022/01/01 09:21:06;;;;;;;1.45;1.35;;;;;;;;;;5056712;28;20205;-54
2022/01/01 09:23:33;;;;;;;1.45;1.35;;;;;;;;;;5056324;28;20608;-54
2022/01/01 09:26:01;;;;;;;1.60;1.50;;;;;;;;;;5057145;28;20592;-54
2022/01/01 09:28:29;;;;;;;1.60;1.50;;;;;;;;;;5056673;28;20208;-54
2022/01/01 09:30:58;;;;;;;1.50;1.40;;;;;;;;;;5056744;28;20205;-54
2022/01/01 09:33:29;;;;;;;1.65;1.55;;;;;;;;;;5056384;28;20225;-54
2022/01/01 09:35:56;;;;;;;1.60;1.50;;;;;;;;;;5056041;28;20241;-54
2022/01/01 09:38:24;;;;;;;1.52;1.42;;;;;;;;;;5055891;28;20620;-54
2022/01/01 09:40:54;;;;;;;1.40;1.30;;;;;;;;;;5055977;28;20577;-54
2022/01/01 09:43:22;;;;;;;1.25;1.15;;;;;;;;;;5055796;28;20577;-54
2022/01/01 09:45:50;;;;;;;1.48;1.38;;;;;;;;;;5056019;28;20209;-54
2022/01/01 09:48:21;;;;;;;1.50;1.40;;;;;;;;;;5055928;28;20196;-54
2022/01/01 09:50:49;;;;;;;1.58;1.30;;;;;;;;;;5055648;28;20258;-54
2022/01/01 09:53:17;;;;;;;1.30;1.20;;;;;;;;;;5055639;28;20230;-54
2022/01/01 09:55:44;;;;;;;1.50;1.40;;;;;;;;;;5055888;28;20228;-54
2022/01/01 09:58:12;;;;;;;1.50;1.40;;;;;;;;;;5055831;28;20212;-54
2022/01/01 10:00:40;;;;;;;1.60;1.50;;;;;;;;;;5056791;28;20483;-54
2022/01/01 10:03:11;;;;;;;1.40;1.30;;;;;;;;;;5055332;28;20300;-54
2022/01/01 10:05:57;;;;;;;1.40;1.30;;;;;;;;;;5055687;28;20232;-54
2022/01/01 10:08:24;;;;;;;1.55;1.45;;;;;;;;;;5056272;28;20209;-54
2022/01/01 10:10:52;;;;;;;1.58;1.48;;;;;;;;;;5055793;28;20235;-54
2022/01/01 10:13:20;;;;;;;1.38;1.27;;;;;;;;;;5056002;28;20229;-54
2022/01/01 10:15:49;;;;;;;1.60;1.50;;;;;;;;;;5055446;28;20315;-54
2022/01/01 10:18:16;;;;;;;1.40;1.30;;;;;;;;;;5055509;28;20513;-54
2022/01/01 10:20:45;;;;;;;1.27;1.20;;;;;;;;;;5052381;28;20212;-54
2022/01/01 10:23:15;;;;;;;1.63;1.50;;;;;;;;;;5055921;28;20201;-54
2022/01/01 10:28:29;;;;;;;1.58;1.48;;;;;;;;;;5055583;28;20290;-54
2022/01/01 10:30:58;;;;;;;1.50;1.40;;;;;;;;;;5055234;28;20237;-54
2022/01/01 10:33:25;;;;;;;1.55;1.45;;;;;;;;;;5057135;28;20224;-54
2022/01/01 10:35:56;;;;;;;1.50;1.40;;;;;;;;;;5059310;28;20236;-54
2022/01/01 10:38:26;;;;;;;1.40;1.30;;;;;;;;;;5058854;28;20209;-54
2022/01/01 10:40:56;;;;;;;1.52;1.42;;;;;;;;;;5059354;28;20235;-54
2022/01/01 10:43:35;;;;;;;1.42;1.33;;;;;;;;;;5058287;28;20200;-54
2022/01/01 10:46:04;;;;;;;1.40;1.30;;;;;;;;;;5058938;28;20224;-54
2022/01/01 10:48:42;;;;;;;1.40;1.30;;;;;;;;;;5058712;28;20215;-54
2022/01/01 10:51:12;;;;;;;1.52;1.42;;;;;;;;;;5059248;28;20207;-54
2022/01/01 10:53:39;;;;;;;1.33;1.23;;;;;;;;;;5059035;28;20243;-54
2022/01/01 10:56:19;;;;;;;1.90;1.20;;;;;;;;;;5058176;28;20211;-54
2022/01/01 10:58:46;;;;;;;1.50;1.40;;;;;;;;;;5059371;28;20205;-54
2022/01/01 11:01:14;;;;;;;1.70;1.60;;;;;;;;;;5058993;28;20216;-54
2022/01/01 11:03:42;;;;;;;1.80;1.48;;;;;;;;;;5058880;28;20208;-54
2022/01/01 11:06:12;;;;;;;1.55;1.45;;;;;;;;;;5059040;28;20259;-54
2022/01/01 11:08:40;;;;;;;1.35;1.25;;;;;;;;;;5058787;28;20205;-54
2022/01/01 11:11:08;;;;;;;1.77;1.67;;;;;;;;;;5059027;28;20458;-54
2022/01/01 11:13:36;;;;;;;2.13;1.30;;;;;;;;;;5057340;28;20900;-54
2022/01/01 11:16:04;;;;;;;1.52;1.42;;;;;;;;;;5057980;28;20205;-54
2022/01/01 11:18:31;;;;;;;1.73;1.60;;;;;;;;;;5057225;28;20224;-54
2022/01/01 11:20:59;;;;;;;1.40;1.30;;;;;;;;;;5057876;28;20209;-54
2022/01/01 11:23:28;;;;;;;1.40;1.30;;;;;;;;;;5057704;28;20211;-54
2022/01/01 11:25:56;;;;;;;1.40;1.30;;;;;;;;;;5058449;28;20609;-54
2022/01/01 11:28:23;;;;;;;1.30;1.20;;;;;;;;;;5058012;28;20219;-54
2022/01/01 11:30:52;;;;;;;1.50;1.40;;;;;;;;;;5058625;28;20205;-54
2022/01/01 11:33:20;;;;;;;1.50;1.40;;;;;;;;;;5058667;28;20225;-54
2022/01/01 11:35:53;;;;;;;1.40;1.30;;;;;;;;;;5058117;28;20244;-54
2022/01/01 11:38:21;;;;;;;1.50;1.40;;;;;;;;;;5058044;28;20528;-54
2022/01/01 11:40:57;;;;;;;2.00;1.50;;;;;;;;;;5057643;28;20201;-54
2022/01/01 11:43:38;;;;;;;1.52;1.42;;;;;;;;;;5057143;28;20296;-54
2022/01/01 11:46:06;;;;;;;1.67;1.58;;;;;;;;;;5056409;28;20216;-54
2022/01/01 11:48:36;;;;;;;1.52;1.42;;;;;;;;;;5058093;28;20205;-54
2022/01/01 11:51:22;;;;;;;1.60;1.50;;;;;;;;;;5057687;28;20216;-54
2022/01/01 11:54:04;;;;;;;1.48;1.38;;;;;;;;;;5056796;28;20520;-54
2022/01/01 11:56:47;;;;;;;1.50;1.40;;;;;;;;;;5055076;28;20756;-54
2022/01/01 11:59:20;;;;;;;1.83;1.42;;;;;;;;;;5058486;28;20228;-54
2022/01/01 12:01:48;;;;;;;1.60;1.50;;;;;;;;;;5063239;28;20204;-54
2022/01/01 12:04:23;;;;;;;1.83;1.73;;;;;;;;;;5061953;28;20209;-54
2022/01/01 12:06:53;;;;;;;1.50;1.40;;;;;;;;;;5057324;28;20204;-54
2022/01/01 12:09:21;;;;;;;1.88;1.58;;;;;;;;;;5056647;28;20201;-54
2022/01/01 12:11:51;;;;;;;1.45;1.35;;;;;;;;;;5056673;28;20216;-54
2022/01/01 12:14:24;;;;;;;1.40;1.30;;;;;;;;;;5056178;28;20236;-54
2022/01/01 12:16:53;;;;;;;1.60;1.50;;;;;;;;;;5049528;28;20555;-54
2022/01/01 12:19:22;;;;;;;1.60;1.50;;;;;;;;;;5036268;28;20206;-54
2022/01/01 12:21:49;;;;;;;1.50;1.40;;;;;;;;;;5037187;28;20224;-54
2022/01/01 12:24:21;;;;;;;2.67;2.30;;;;;;;;;;5036929;28;20494;-54
2022/01/01 12:26:53;;;;;;;3.60;3.40;;;;;;;;;;5036770;28;20479;-54
2022/01/01 12:29:26;;;;;;;4.32;3.88;;;;;;;;;;5036544;28;20228;-54
2022/01/01 12:31:57;;;;;;;3.50;3.20;;;;;;;;;;5036784;28;20201;-54
2022/01/01 12:34:24;;;;;;;3.08;2.88;;;;;;;;;;5036520;28;20253;-54
2022/01/01 12:36:53;;;;;;;3.63;3.10;;;;;;;;;;5051347;28;20217;-54
2022/01/01 12:39:20;;;;;;;3.35;3.05;;;;;;;;;;5056831;28;20212;-54
2022/01/01 12:41:47;;;;;;;3.25;2.83;;;;;;;;;;5056156;28;20218;-54
2022/01/01 12:44:19;;;;;;;3.60;3.30;;;;;;;;;;5055747;28;20581;-54
2022/01/01 12:46:48;;;;;;;3.65;3.35;;;;;;;;;;5056424;28;20216;-54
2022/01/01 12:49:16;;;;;;;4.82;3.60;;;;;;;;;;5056103;28;20216;-54
2022/01/01 12:51:44;;;;;;;4.32;3.65;;;;;;;;;;5055986;28;20303;-54
2022/01/01 12:54:12;;;;;;;4.05;3.58;;;;;;;;;;5056263;28;20336;-54
2022/01/01 12:56:40;;;;;;;3.90;3.40;;;;;;;;;;5056288;28;20216;-54
2022/01/01 12:59:10;;;;;;;3.90;3.47;;;;;;;;;;5056274;28;20209;-54
2022/01/01 13:01:38;;;;;;;4.18;3.55;;;;;;;;;;5055607;28;20662;-54
2022/01/01 13:04:09;;;;;;;4.85;3.90;;;;;;;;;;5055698;28;20562;-54
2022/01/01 13:06:37;;;;;;;5.20;3.60;;;;;;;;;;5056364;28;20224;-54
2022/01/01 13:09:05;;;;;;;5.97;3.53;;;;;;;;;;5056052;28;20205;-54
2022/01/01 13:11:33;;;;;;;4.55;3.53;;;;;;;;;;5055760;28;20603;-54
2022/01/01 13:14:01;;;;;;;3.90;3.40;;;;;;;;;;5056325;28;20259;-54
2022/01/01 13:16:29;;;;;;;5.13;3.50;;;;;;;;;;5055992;28;20236;-54
2022/01/01 13:18:57;;;;;;;5.55;3.40;;;;;;;;;;5056680;28;20486;-54
2022/01/01 13:21:26;;;;;;;4.30;3.55;;;;;;;;;;5055647;28;20205;-54
2022/01/01 13:23:53;;;;;;;3.78;3.35;;;;;;;;;;5055734;28;20569;-54
2022/01/01 13:26:21;;;;;;;4.32;3.30;;;;;;;;;;5055855;28;20625;-54
2022/01/01 13:28:49;;;;;;;3.80;3.50;;;;;;;;;;5055774;28;20212;-54
2022/01/01 13:31:16;;;;;;;3.42;3.13;;;;;;;;;;5055435;28;20200;-54
2022/01/01 13:33:47;;;;;;;3.90;3.05;;;;;;;;;;5055370;28;20225;-54
2022/01/01 13:36:29;;;;;;;3.35;2.83;;;;;;;;;;5054826;28;20627;-54
2022/01/01 13:38:58;;;;;;;4.75;3.47;;;;;;;;;;5055166;28;20205;-54
2022/01/01 13:41:32;;;;;;;4.05;3.08;;;;;;;;;;5054837;28;20612;-54
2022/01/01 13:44:00;;;;;;;3.97;3.03;;;;;;;;;;5055117;28;20208;-54
2022/01/01 13:46:31;;;;;;;3.85;2.83;;;;;;;;;;5055856;28;20204;-54
2022/01/01 13:48:59;;;;;;;3.83;3.03;;;;;;;;;;5054931;28;20600;-54
2022/01/01 13:51:27;;;;;;;3.28;2.95;;;;;;;;;;5054765;28;20212;-54
2022/01/01 13:54:05;;;;;;;4.80;2.80;;;;;;;;;;5054441;28;20229;-54
2022/01/01 13:56:32;;;;;;;4.15;2.78;;;;;;;;;;5055650;28;20204;-54
2022/01/01 13:59:01;;;;;;;5.53;2.90;;;;;;;;;;5054830;28;20223;-54
2022/01/01 14:01:29;;;;;;;3.00;2.70;;;;;;;;;;5054763;28;20208;-54
2022/01/01 14:03:56;;;;;;;4.15;3.00;;;;;;;;;;5054127;28;20212;-54
2022/01/01 14:06:24;;;;;;;3.40;2.47;;;;;;;;;;5053681;28;20205;-54
2022/01/01 14:09:01;;;;;;;2.88;2.45;;;;;;;;;;5056124;28;20211;-54
2022/01/01 14:11:34;;;;;;;3.65;2.80;;;;;;;;;;5057765;28;20215;-54
2022/01/01 14:14:05;;;;;;;2.97;2.58;;;;;;;;;;5058433;28;20240;-54
2022/01/01 14:16:32;;;;;;;3.15;2.60;;;;;;;;;;5057593;28;20258;-54
2022/01/01 14:19:00;;;;;;;4.82;2.60;;;;;;;;;;5058326;28;20549;-54
2022/01/01 14:21:28;;;;;;;2.80;2.28;;;;;;;;;;5058247;28;20236;-54
2022/01/01 14:24:03;;;;;;;2.40;2.00;;;;;;;;;;5058118;28;20675;-54
2022/01/01 14:26:31;;;;;;;2.80;2.10;;;;;;;;;;5058024;28;20706;-54
2022/01/01 14:28:59;;;;;;;3.65;2.33;;;;;;;;;;5058506;28;20569;-54
2022/01/01 14:31:27;;;;;;;3.00;2.65;;;;;;;;;;5058609;28;20625;-54
2022/01/01 14:33:54;;;;;;;3.70;2.22;;;;;;;;;;5057846;28;20491;-54
2022/01/01 14:36:22;;;;;;;3.47;2.15;;;;;;;;;;5057200;28;20205;-54
2022/01/01 14:38:49;;;;;;;2.47;2.10;;;;;;;;;;5057473;28;20204;-54
2022/01/01 14:41:18;;;;;;;3.47;2.25;;;;;;;;;;5057506;28;20596;-54
2022/01/01 14:43:45;;;;;;;2.42;2.22;;;;;;;;;;5057183;28;20592;-54
2022/01/01 14:46:19;;;;;;;2.60;1.98;;;;;;;;;;5057511;28;20204;-54
2022/01/01 14:48:47;;;;;;;2.50;2.30;;;;;;;;;;5057534;28;20205;-54
2022/01/01 14:51:20;;;;;;;2.83;2.25;;;;;;;;;;5057296;28;20205;-54
2022/01/01 14:53:58;;;;;;;2.53;1.88;;;;;;;;;;5058264;28;20565;-54